Time;durP1;ratioP1;P1;durP2;ratioP2;P2;SDS_P1;SDS_P2;PMS_P1;PMS_P2;Temp;Humidity;BMP_temperature;BMP_pressure;BME280_temperature;BME280_humidity;BME280_pressure;Samples;Min_cycle;Max_cycle;Signal;HPM_P1;HPM_P2
2020/12/20 00:01:25;;;;;;;2.25;0.90;;;22.90;39.00;;;;;;5035511;28;20446;-50
2020/12/20 00:03:52;;;;;;;1.58;0.80;;;22.80;38.90;;;;;;5030926;28;20040;-47
2020/12/20 00:06:18;;;;;;;1.55;0.80;;;22.80;38.90;;;;;;5033472;28;20017;-49
2020/12/20 00:08:46;;;;;;;1.20;0.75;;;22.80;38.90;;;;;;5034511;28;20384;-48
2020/12/20 00:11:12;;;;;;;1.05;0.70;;;22.80;38.90;;;;;;5034943;28;20037;-52
2020/12/20 00:13:38;;;;;;;0.95;0.63;;;22.80;39.00;;;;;;5033501;28;20036;-50
2020/12/20 00:16:03;;;;;;;0.90;0.60;;;22.80;39.00;;;;;;5035222;28;20083;-47
2020/12/20 00:18:29;;;;;;;1.98;0.70;;;22.80;39.00;;;;;;5033787;28;20071;-50
2020/12/20 00:20:55;;;;;;;1.70;0.60;;;22.80;39.00;;;;;;5015335;28;20087;-50
2020/12/20 00:23:21;;;;;;;1.15;0.70;;;22.80;39.00;;;;;;5016567;28;20077;-53
2020/12/20 00:25:46;;;;;;;1.27;0.70;;;22.70;39.00;;;;;;5034300;28;20033;-48
2020/12/20 00:28:12;;;;;;;0.88;0.80;;;22.70;39.00;;;;;;5033311;28;20429;-48
2020/12/20 00:30:38;;;;;;;2.45;0.90;;;22.70;39.00;;;;;;5033046;28;20032;-51
2020/12/20 00:33:04;;;;;;;0.70;0.60;;;22.70;39.10;;;;;;5032858;28;20041;-49
2020/12/20 00:35:29;;;;;;;1.65;0.90;;;22.70;39.10;;;;;;5034910;28;20052;-47
2020/12/20 00:37:55;;;;;;;1.27;0.70;;;22.70;39.10;;;;;;5032115;28;20029;-53
2020/12/20 00:40:21;;;;;;;1.38;0.85;;;22.70;39.10;;;;;;5033571;28;20025;-51
2020/12/20 00:42:47;;;;;;;1.25;0.80;;;22.70;39.10;;;;;;5016493;28;20044;-47
2020/12/20 00:45:13;;;;;;;1.30;0.73;;;22.70;39.10;;;;;;5035137;28;20025;-49
2020/12/20 00:47:39;;;;;;;1.50;0.90;;;22.70;39.10;;;;;;5016232;28;20041;-52
2020/12/20 00:50:04;;;;;;;1.65;0.80;;;22.60;39.10;;;;;;5033521;28;20106;-52
2020/12/20 00:52:30;;;;;;;1.40;0.70;;;22.60;39.10;;;;;;5034861;28;20021;-49
2020/12/20 00:54:59;;;;;;;1.30;0.80;;;22.60;39.10;;;;;;5014919;28;20396;-52
2020/12/20 00:57:25;;;;;;;1.63;0.88;;;22.60;39.10;;;;;;5016042;28;20030;-50
2020/12/20 00:59:51;;;;;;;1.10;0.80;;;22.60;39.10;;;;;;5015976;28;20032;-50
2020/12/20 01:02:17;;;;;;;1.25;0.70;;;22.60;39.20;;;;;;5034632;28;20025;-51
2020/12/20 01:04:43;;;;;;;1.95;0.80;;;22.60;39.20;;;;;;5031235;28;20060;-50
2020/12/20 01:07:09;;;;;;;1.27;0.77;;;22.60;39.20;;;;;;5015124;28;20136;-47
2020/12/20 01:09:42;;;;;;;1.10;0.70;;;22.60;39.20;;;;;;5014037;28;20472;-47
2020/12/20 01:12:09;;;;;;;0.98;0.70;;;22.60;39.30;;;;;;5012470;28;20025;-51
2020/12/20 01:15:07;;;;;;;1.35;0.70;;;22.60;39.30;;;;;;4989038;28;20128;-47
2020/12/20 01:17:37;;;;;;;1.85;0.75;;;22.50;39.30;;;;;;5015467;28;20487;-52
2020/12/20 01:20:05;;;;;;;1.40;0.80;;;22.50;39.30;;;;;;5014787;28;20428;-51
2020/12/20 01:22:32;;;;;;;1.15;0.80;;;22.50;39.30;;;;;;5022128;28;20044;-52
2020/12/20 01:24:58;;;;;;;1.13;0.65;;;22.50;39.30;;;;;;5015347;28;20029;-53
2020/12/20 01:27:24;;;;;;;1.38;0.80;;;22.50;39.30;;;;;;5032736;28;20034;-54
2020/12/20 01:29:50;;;;;;;0.88;0.60;;;22.50;39.30;;;;;;5032840;28;20037;-53
2020/12/20 01:32:17;;;;;;;1.27;0.70;;;22.50;39.40;;;;;;5016109;28;20033;-51
2020/12/20 01:34:45;;;;;;;1.33;0.73;;;22.50;39.40;;;;;;5015645;28;20071;-56
2020/12/20 01:37:12;;;;;;;0.82;0.70;;;22.50;39.40;;;;;;5013911;28;20083;-53
2020/12/20 01:39:46;;;;;;;;;;;22.50;39.40;;;;;;5013087;28;20120;-54
2020/12/20 01:42:12;;;;;;;0.90;0.57;;;22.50;39.40;;;;;;5015095;28;20007;-51
2020/12/20 01:44:39;;;;;;;1.23;0.75;;;22.40;39.40;;;;;;5015717;28;20444;-50
2020/12/20 01:47:06;;;;;;;1.10;0.68;;;22.40;39.40;;;;;;5012220;28;20112;-54
2020/12/20 01:49:33;;;;;;;1.52;0.80;;;22.40;39.40;;;;;;5016171;28;20099;-52
2020/12/20 01:52:00;;;;;;;1.73;0.80;;;22.40;39.40;;;;;;5014884;28;20532;-47
2020/12/20 01:54:27;;;;;;;0.95;0.60;;;22.40;39.40;;;;;;5016267;28;20518;-53
2020/12/20 01:57:23;;;;;;;1.20;0.70;;;22.40;39.40;;;;;;5016970;28;20034;-51
2020/12/20 02:00:08;;;;;;;1.52;0.80;;;22.40;39.40;;;;;;5032377;28;20037;-51
2020/12/20 02:03:03;;;;;;;1.33;0.90;;;22.40;39.40;;;;;;5032000;28;20086;-52
2020/12/20 02:05:29;;;;;;;0.80;0.60;;;22.40;39.50;;;;;;5014977;28;20029;-52
2020/12/20 02:07:56;;;;;;;1.17;0.88;;;22.40;39.40;;;;;;5012543;28;20523;-50
2020/12/20 02:10:22;;;;;;;1.45;0.80;;;22.40;39.50;;;;;;5015853;28;20021;-48
2020/12/20 02:12:48;;;;;;;1.42;0.70;;;22.40;39.50;;;;;;5012128;28;20034;-50
2020/12/20 02:15:21;;;;;;;1.45;0.85;;;22.40;39.50;;;;;;5015623;28;20064;-49
2020/12/20 02:17:49;;;;;;;0.90;0.60;;;22.40;39.60;;;;;;5014514;28;20025;-49
2020/12/20 02:20:15;;;;;;;0.90;0.68;;;22.40;39.50;;;;;;5014525;28;20098;-52
2020/12/20 02:23:13;;;;;;;1.15;0.70;;;22.40;39.60;;;;;;4990917;28;20041;-53
2020/12/20 02:25:51;;;;;;;1.70;0.80;;;22.30;39.50;;;;;;5015283;28;20022;-50
2020/12/20 02:28:22;;;;;;;0.97;0.70;;;22.30;39.50;;;;;;5013435;28;20099;-51
2020/12/20 02:30:54;;;;;;;0.90;0.60;;;22.30;39.50;;;;;;5015475;28;20441;-50
2020/12/20 02:33:26;;;;;;;1.02;0.60;;;22.30;39.50;;;;;;5012488;28;20334;-49
2020/12/20 02:35:53;;;;;;;1.42;0.77;;;22.30;39.50;;;;;;5015050;28;20033;-50
2020/12/20 02:38:19;;;;;;;1.50;0.80;;;22.30;39.50;;;;;;5010519;28;20018;-49
2020/12/20 02:41:04;;;;;;;1.13;0.60;;;22.30;39.50;;;;;;5014354;28;20026;-50
2020/12/20 02:43:31;;;;;;;1.42;0.68;;;22.30;39.50;;;;;;5031932;28;20025;-54
2020/12/20 02:45:57;;;;;;;1.05;0.65;;;22.30;39.50;;;;;;5015701;28;20025;-49
2020/12/20 02:48:23;;;;;;;1.27;0.57;;;22.30;39.50;;;;;;5012737;28;20068;-49
2020/12/20 02:50:49;;;;;;;0.80;0.57;;;22.30;39.60;;;;;;5015133;28;20034;-53
2020/12/20 02:53:15;;;;;;;1.13;0.80;;;22.30;39.60;;;;;;5014756;28;20061;-48
2020/12/20 02:55:41;;;;;;;1.17;0.70;;;22.30;39.60;;;;;;5030360;28;20041;-52
2020/12/20 02:58:11;;;;;;;1.45;0.60;;;22.30;39.60;;;;;;5012677;28;20049;-49
2020/12/20 03:00:43;;;;;;;1.63;0.88;;;22.30;39.60;;;;;;5014772;28;20034;-50
2020/12/20 03:03:11;;;;;;;1.15;0.68;;;22.20;39.50;;;;;;5012432;28;20043;-49
2020/12/20 03:05:40;;;;;;;1.02;0.70;;;22.30;39.60;;;;;;5015157;28;20025;-46
2020/12/20 03:08:07;;;;;;;1.67;0.70;;;22.30;39.60;;;;;;5014448;28;20098;-49
2020/12/20 03:10:32;;;;;;;0.82;0.60;;;22.30;39.60;;;;;;5011464;28;20041;-45
2020/12/20 03:12:59;;;;;;;1.13;0.88;;;22.20;39.50;;;;;;5013052;28;20033;-46
2020/12/20 03:15:28;;;;;;;1.40;0.65;;;22.20;39.50;;;;;;5014956;28;20034;-49
2020/12/20 03:17:54;;;;;;;1.15;0.50;;;22.20;39.50;;;;;;5026456;28;20040;-50
2020/12/20 03:20:20;;;;;;;1.75;0.80;;;22.20;39.50;;;;;;5014960;28;20032;-50
2020/12/20 03:22:47;;;;;;;0.98;0.60;;;22.20;39.50;;;;;;5015044;28;20041;-49
2020/12/20 03:25:41;;;;;;;1.35;0.65;;;22.20;39.50;;;;;;4956828;28;20067;-47
2020/12/20 03:28:26;;;;;;;1.27;0.70;;;22.20;39.60;;;;;;5033172;28;20049;-48
2020/12/20 03:31:15;;;;;;;1.23;0.70;;;22.20;39.60;;;;;;5016169;28;20037;-50
2020/12/20 03:34:02;;;;;;;1.23;0.80;;;22.20;39.60;;;;;;5015177;28;20036;-51
2020/12/20 03:36:39;;;;;;;0.80;0.60;;;22.20;39.60;;;;;;5018551;28;20033;-46
2020/12/20 03:39:07;;;;;;;1.05;0.60;;;22.20;39.60;;;;;;5013892;28;20033;-51
2020/12/20 03:41:33;;;;;;;0.80;0.50;;;22.10;39.60;;;;;;5018330;28;20462;-46
2020/12/20 03:43:59;;;;;;;0.80;0.60;;;22.20;39.70;;;;;;5015345;28;20361;-49
2020/12/20 03:46:26;;;;;;;1.23;0.70;;;22.10;39.60;;;;;;5018321;28;20033;-48
2020/12/20 03:48:52;;;;;;;1.33;0.70;;;22.20;39.60;;;;;;5017495;28;20037;-53
2020/12/20 03:51:20;;;;;;;0.93;0.60;;;22.10;39.60;;;;;;5035927;28;20029;-47
2020/12/20 03:53:49;;;;;;;1.27;0.70;;;22.10;39.60;;;;;;5016997;28;20136;-47
2020/12/20 03:56:15;;;;;;;2.20;0.77;;;22.10;39.70;;;;;;5015974;28;20385;-52
2020/12/20 03:58:47;;;;;;;1.35;0.60;;;22.10;39.70;;;;;;5017285;28;20042;-50
2020/12/20 04:01:15;;;;;;;1.38;0.60;;;22.10;39.70;;;;;;5018729;28;20025;-52
2020/12/20 04:03:42;;;;;;;1.23;0.68;;;22.10;39.70;;;;;;5017618;28;20029;-49
2020/12/20 04:06:08;;;;;;;1.13;0.60;;;22.10;39.70;;;;;;5019541;28;20041;-52
2020/12/20 04:08:35;;;;;;;1.85;0.60;;;22.10;39.70;;;;;;5013991;28;20088;-45
2020/12/20 04:11:21;;;;;;;1.67;0.70;;;22.10;39.70;;;;;;5036608;28;20042;-48
2020/12/20 04:13:48;;;;;;;1.50;0.70;;;22.10;39.70;;;;;;5015577;28;20450;-50
2020/12/20 04:16:14;;;;;;;1.15;0.57;;;22.10;39.70;;;;;;5016125;28;20045;-50
2020/12/20 04:18:40;;;;;;;1.33;0.57;;;22.10;39.70;;;;;;5018518;28;20082;-52
2020/12/20 04:21:06;;;;;;;1.00;0.65;;;22.10;39.70;;;;;;5019512;28;20040;-47
2020/12/20 04:23:34;;;;;;;1.20;0.60;;;22.10;39.70;;;;;;5018167;28;20030;-48
2020/12/20 04:26:26;;;;;;;1.20;0.65;;;22.10;39.70;;;;;;5034561;28;20041;-48
2020/12/20 04:29:06;;;;;;;1.30;0.60;;;22.10;39.80;;;;;;5018545;28;20033;-48
2020/12/20 04:31:40;;;;;;;1.35;0.75;;;22.10;39.80;;;;;;5019220;28;20025;-51
2020/12/20 04:34:06;;;;;;;0.73;0.68;;;22.10;39.80;;;;;;5017259;28;20038;-48
2020/12/20 04:36:32;;;;;;;1.58;0.70;;;22.10;39.90;;;;;;5018980;28;20045;-47
2020/12/20 04:39:08;;;;;;;1.30;0.60;;;22.10;39.80;;;;;;5017801;28;20361;-47
2020/12/20 04:41:34;;;;;;;0.77;0.68;;;22.10;39.90;;;;;;5018244;28;20025;-49
2020/12/20 04:44:04;;;;;;;0.63;0.52;;;22.10;39.90;;;;;;5018331;28;20041;-49
2020/12/20 04:46:32;;;;;;;2.47;0.77;;;22.00;39.80;;;;;;5018738;28;20057;-52
2020/12/20 04:49:13;;;;;;;0.88;0.57;;;22.00;39.80;;;;;;5018241;28;20036;-49
2020/12/20 04:51:41;;;;;;;1.67;0.70;;;22.00;39.80;;;;;;5018874;28;20025;-48
2020/12/20 04:54:09;;;;;;;0.60;0.52;;;22.10;39.90;;;;;;5017877;28;20037;-50
2020/12/20 04:56:37;;;;;;;1.25;0.77;;;22.00;39.80;;;;;;5018789;28;20124;-51
2020/12/20 04:59:10;;;;;;;1.13;0.60;;;22.00;39.80;;;;;;5017805;28;20115;-50
2020/12/20 05:01:45;;;;;;;1.20;0.77;;;22.00;39.80;;;;;;5015164;28;20034;-51
2020/12/20 05:04:14;;;;;;;1.33;0.70;;;22.00;39.80;;;;;;5018418;28;20091;-48
2020/12/20 05:06:40;;;;;;;2.13;0.80;;;22.00;39.80;;;;;;5018011;28;20052;-49
2020/12/20 05:09:13;;;;;;;1.13;0.50;;;22.00;39.90;;;;;;5004872;28;20136;-48
2020/12/20 05:11:47;;;;;;;1.25;0.85;;;22.00;39.80;;;;;;4995378;28;20030;-51
2020/12/20 05:14:31;;;;;;;1.35;0.70;;;22.00;39.80;;;;;;4998306;28;20030;-48
2020/12/20 05:17:16;;;;;;;0.70;0.60;;;22.00;39.80;;;;;;4997005;28;20037;-49
2020/12/20 05:19:50;;;;;;;0.43;0.40;;;22.00;39.90;;;;;;5004252;28;20025;-48
2020/12/20 05:22:21;;;;;;;0.95;0.60;;;22.00;39.90;;;;;;4981305;28;20030;-46
2020/12/20 05:24:55;;;;;;;1.20;0.50;;;22.00;39.90;;;;;;4994123;28;20120;-51
2020/12/20 05:27:29;;;;;;;1.10;0.63;;;21.90;39.80;;;;;;4996696;28;20025;-48
2020/12/20 05:30:15;;;;;;;2.05;0.60;;;21.90;39.90;;;;;;4979215;28;20034;-46
2020/12/20 05:33:04;;;;;;;1.25;0.70;;;21.90;39.90;;;;;;4979183;28;20042;-49
2020/12/20 05:35:33;;;;;;;1.92;0.55;;;21.90;39.90;;;;;;4978897;28;20038;-48
2020/12/20 05:37:59;;;;;;;0.98;0.60;;;21.90;39.90;;;;;;4981046;28;20038;-48
2020/12/20 05:40:34;;;;;;;2.50;0.68;;;21.90;39.90;;;;;;5003274;28;20052;-46
2020/12/20 05:43:06;;;;;;;0.98;0.60;;;21.90;39.90;;;;;;4995827;28;20037;-46
2020/12/20 05:45:38;;;;;;;2.60;0.60;;;21.90;39.90;;;;;;4985272;28;20113;-48
2020/12/20 05:48:31;;;;;;;2.08;0.80;;;21.90;40.00;;;;;;4984645;28;20117;-48
2020/12/20 05:51:06;;;;;;;1.73;0.70;;;21.90;40.00;;;;;;5004749;28;20050;-50
2020/12/20 05:53:33;;;;;;;1.50;0.70;;;21.90;40.00;;;;;;5013825;28;20041;-47
2020/12/20 05:56:04;;;;;;;1.90;0.70;;;21.90;40.00;;;;;;5002771;28;20125;-51
2020/12/20 05:58:31;;;;;;;1.15;0.60;;;21.90;40.00;;;;;;4999732;28;20064;-53
2020/12/20 06:00:58;;;;;;;1.35;0.57;;;21.90;40.00;;;;;;5009238;28;20045;-51
2020/12/20 06:03:25;;;;;;;1.27;0.60;;;21.90;40.00;;;;;;5004523;28;20022;-48
2020/12/20 06:05:51;;;;;;;1.25;0.57;;;21.90;40.00;;;;;;5014624;28;20061;-48
2020/12/20 06:08:18;;;;;;;2.60;0.80;;;21.90;40.00;;;;;;5019647;28;20449;-48
2020/12/20 06:10:48;;;;;;;1.13;0.60;;;21.90;40.00;;;;;;5020169;28;20029;-49
2020/12/20 06:13:22;;;;;;;1.25;0.70;;;21.90;40.00;;;;;;5017436;28;20129;-49
2020/12/20 06:15:57;;;;;;;1.15;0.80;;;21.80;40.00;;;;;;5033703;28;20037;-48
2020/12/20 06:18:24;;;;;;;1.77;0.65;;;21.80;40.00;;;;;;5035011;28;20048;-47
2020/12/20 06:21:01;;;;;;;2.10;0.70;;;21.80;40.10;;;;;;5021112;28;20036;-47
2020/12/20 06:23:31;;;;;;;1.55;0.60;;;21.80;40.00;;;;;;5034586;28;20109;-48
2020/12/20 06:25:59;;;;;;;1.15;0.68;;;21.90;40.10;;;;;;5014029;28;20441;-49
2020/12/20 06:28:29;;;;;;;1.10;0.90;;;21.80;40.00;;;;;;5019019;28;20060;-47
2020/12/20 06:30:56;;;;;;;0.98;0.50;;;21.80;40.00;;;;;;5031941;28;20041;-47
2020/12/20 06:33:45;;;;;;;1.05;0.80;;;21.80;40.00;;;;;;5031810;28;20037;-48
2020/12/20 06:36:13;;;;;;;2.00;0.50;;;21.80;40.00;;;;;;5018876;28;20042;-48
2020/12/20 06:38:40;;;;;;;1.60;0.60;;;21.80;40.10;;;;;;5033879;28;20093;-46
2020/12/20 06:41:06;;;;;;;1.27;0.70;;;21.80;40.10;;;;;;5034238;28;20408;-49
2020/12/20 06:43:35;;;;;;;1.63;0.60;;;21.80;40.10;;;;;;5032443;28;20048;-49
2020/12/20 06:46:02;;;;;;;0.95;0.50;;;21.80;40.10;;;;;;5034523;28;20029;-49
2020/12/20 06:48:34;;;;;;;0.95;0.60;;;21.80;40.10;;;;;;5023671;28;20033;-48
2020/12/20 06:51:01;;;;;;;2.05;0.80;;;21.80;40.10;;;;;;5032009;28;20091;-48
2020/12/20 06:53:45;;;;;;;1.40;0.70;;;21.80;40.10;;;;;;5032332;28;20033;-48
2020/12/20 06:56:16;;;;;;;3.42;0.73;;;21.80;40.10;;;;;;5035196;28;20073;-48
2020/12/20 06:58:42;;;;;;;2.00;0.80;;;21.80;40.10;;;;;;5021778;28;20128;-53
2020/12/20 07:01:07;;;;;;;3.35;0.70;;;21.80;40.10;;;;;;5008790;28;20418;-50
2020/12/20 07:03:36;;;;;;;2.17;0.70;;;21.80;40.10;;;;;;5036659;28;20087;-50
2020/12/20 07:06:07;;;;;;;1.73;0.68;;;21.70;40.10;;;;;;5037941;28;20037;-50
2020/12/20 07:08:35;;;;;;;0.85;0.52;;;21.70;40.10;;;;;;5013912;28;20051;-50
2020/12/20 07:11:06;;;;;;;2.05;0.77;;;21.70;40.10;;;;;;5004735;28;20033;-46
2020/12/20 07:13:43;;;;;;;1.52;0.70;;;21.70;40.10;;;;;;5017423;28;20037;-49
2020/12/20 07:16:14;;;;;;;0.70;0.52;;;21.70;40.10;;;;;;5018311;28;20046;-47
2020/12/20 07:18:56;;;;;;;1.35;0.60;;;21.70;40.10;;;;;;5001988;28;20026;-53
2020/12/20 07:21:22;;;;;;;0.93;0.50;;;21.70;40.10;;;;;;5018320;28;20037;-48
2020/12/20 07:24:02;;;;;;;1.27;0.70;;;21.70;40.20;;;;;;5017593;28;20034;-49
2020/12/20 07:26:27;;;;;;;2.78;0.65;;;21.70;40.20;;;;;;5015678;28;20034;-47
2020/12/20 07:29:00;;;;;;;1.77;0.70;;;21.70;40.10;;;;;;5003073;28;20041;-48
2020/12/20 07:31:26;;;;;;;1.45;0.60;;;21.80;40.20;;;;;;5002019;28;20040;-49
2020/12/20 07:33:52;;;;;;;1.15;0.60;;;21.70;40.20;;;;;;5001269;28;20502;-50
2020/12/20 07:36:21;;;;;;;1.48;0.60;;;21.70;40.20;;;;;;5003524;28;20034;-49
2020/12/20 07:38:49;;;;;;;1.13;0.57;;;21.70;40.20;;;;;;5017758;28;20051;-48
2020/12/20 07:41:16;;;;;;;1.20;0.52;;;21.70;40.20;;;;;;5014791;28;20030;-48
2020/12/20 07:43:46;;;;;;;1.70;0.73;;;21.70;40.20;;;;;;5015199;28;20033;-49
2020/12/20 07:46:15;;;;;;;2.38;0.65;;;21.70;40.20;;;;;;5014959;28;20117;-49
2020/12/20 07:48:41;;;;;;;1.17;0.63;;;21.70;40.20;;;;;;5017937;28;20045;-46
2020/12/20 07:51:08;;;;;;;1.02;0.60;;;21.70;40.20;;;;;;4997156;28;20034;-48
2020/12/20 07:53:47;;;;;;;1.98;0.80;;;21.70;40.20;;;;;;4995493;28;20141;-48
2020/12/20 07:56:27;;;;;;;2.70;0.85;;;21.70;40.10;;;;;;5006173;28;20037;-48
2020/12/20 07:58:57;;;;;;;2.20;0.60;;;21.70;40.10;;;;;;5000492;28;20091;-47
2020/12/20 08:01:23;;;;;;;1.52;0.60;;;21.60;40.10;;;;;;5013642;28;20120;-52
2020/12/20 08:03:59;;;;;;;1.77;0.75;;;21.70;40.20;;;;;;5002637;28;20041;-46
2020/12/20 08:06:25;;;;;;;1.80;0.70;;;21.70;40.20;;;;;;5001731;28;20113;-47
2020/12/20 08:08:51;;;;;;;1.33;0.70;;;21.70;40.20;;;;;;5026202;28;20231;-47
2020/12/20 08:11:19;;;;;;;2.28;0.73;;;21.60;40.10;;;;;;5017361;28;20499;-46
2020/12/20 08:13:53;;;;;;;0.93;0.40;;;21.60;40.20;;;;;;5018586;28;20127;-48
2020/12/20 08:16:29;;;;;;;1.35;0.52;;;21.60;40.10;;;;;;5029716;28;20356;-50
2020/12/20 08:18:58;;;;;;;1.92;0.75;;;21.70;40.20;;;;;;5009587;28;20112;-52
2020/12/20 08:21:30;;;;;;;1.48;0.65;;;21.60;40.20;;;;;;5034795;28;20029;-49
2020/12/20 08:23:58;;;;;;;1.65;0.50;;;21.60;40.50;;;;;;5034820;28;20021;-55
2020/12/20 08:26:43;;;;;;;1.63;0.77;;;21.70;40.90;;;;;;5027566;28;20029;-50
2020/12/20 08:29:15;;;;;;;0.90;0.65;;;21.70;41.00;;;;;;5027995;28;20048;-54
2020/12/20 08:31:41;;;;;;;1.60;0.70;;;21.70;41.00;;;;;;5034446;28;20045;-55
2020/12/20 08:34:21;;;;;;;1.33;0.60;;;21.70;41.10;;;;;;5018540;28;20116;-53
2020/12/20 08:36:50;;;;;;;2.17;0.77;;;21.80;41.10;;;;;;5034256;28;20038;-55
2020/12/20 08:39:16;;;;;;;1.65;0.63;;;21.80;41.10;;;;;;5054588;28;20106;-56
2020/12/20 08:41:43;;;;;;;0.85;0.50;;;21.90;41.20;;;;;;5037399;28;20360;-49
2020/12/20 08:44:13;;;;;;;2.60;0.77;;;21.90;41.10;;;;;;5018242;28;20026;-49
2020/12/20 08:46:44;;;;;;;1.40;0.70;;;21.90;41.10;;;;;;5017192;28;20030;-50
2020/12/20 08:49:11;;;;;;;2.45;0.57;;;22.00;41.00;;;;;;5007824;28;20393;-55
2020/12/20 08:51:37;;;;;;;2.25;0.70;;;22.00;40.90;;;;;;5034047;28;20040;-52
2020/12/20 08:54:03;;;;;;;1.38;0.70;;;22.00;40.70;;;;;;5018381;28;20037;-48
2020/12/20 08:56:29;;;;;;;3.55;0.50;;;22.10;40.70;;;;;;5026541;28;20361;-50
2020/12/20 08:58:58;;;;;;;1.45;0.70;;;22.10;40.60;;;;;;5022110;28;20041;-50
2020/12/20 09:01:28;;;;;;;1.83;0.70;;;22.10;40.40;;;;;;5034373;28;20061;-47
2020/12/20 09:03:54;;;;;;;3.25;0.60;;;22.10;40.30;;;;;;5010083;28;20829;-53
2020/12/20 09:06:20;;;;;;;1.85;1.00;;;22.10;40.20;;;;;;5033274;28;20044;-49
2020/12/20 09:08:46;;;;;;;1.63;0.73;;;22.20;40.10;;;;;;5035336;28;20041;-47
2020/12/20 09:11:32;;;;;;;1.35;0.68;;;22.20;40.10;;;;;;5030773;28;20372;-48
2020/12/20 09:14:09;;;;;;;2.03;0.77;;;22.30;40.00;;;;;;5020385;28;20464;-51
2020/12/20 09:16:44;;;;;;;1.15;0.55;;;22.20;39.90;;;;;;5009700;28;20423;-46
2020/12/20 09:19:14;;;;;;;2.60;1.00;;;22.20;39.90;;;;;;5032493;28;20033;-50
2020/12/20 09:21:47;;;;;;;3.20;0.90;;;22.20;39.90;;;;;;5034428;28;20029;-50
2020/12/20 09:24:13;;;;;;;1.67;0.90;;;22.30;39.90;;;;;;5030177;28;20044;-55
2020/12/20 09:26:39;;;;;;;1.63;0.85;;;22.30;39.90;;;;;;5015313;28;20030;-52
2020/12/20 09:29:08;;;;;;;2.17;0.90;;;22.30;39.90;;;;;;5028553;28;20044;-52
2020/12/20 09:31:34;;;;;;;1.95;0.95;;;22.30;39.90;;;;;;5034854;28;20506;-48
2020/12/20 09:34:02;;;;;;;2.72;1.20;;;22.30;39.80;;;;;;5025689;28;20033;-50
2020/12/20 09:36:28;;;;;;;3.75;1.30;;;22.30;39.70;;;;;;5024774;28;20503;-54
2020/12/20 09:38:56;;;;;;;3.03;1.15;;;22.40;39.70;;;;;;5017079;28;20030;-50
2020/12/20 09:41:25;;;;;;;2.15;0.93;;;22.40;39.60;;;;;;5024085;28;20185;-48
2020/12/20 09:43:53;;;;;;;3.85;1.05;;;22.40;39.50;;;;;;5010612;28;20045;-48
2020/12/20 09:46:27;;;;;;;2.30;1.20;;;22.40;39.40;;;;;;5020090;28;20454;-50
2020/12/20 09:48:55;;;;;;;2.60;0.93;;;22.40;39.40;;;;;;5032907;28;20057;-47
2020/12/20 09:51:22;;;;;;;3.85;1.00;;;22.40;39.50;;;;;;5033489;28;20406;-48
2020/12/20 09:53:49;;;;;;;2.72;1.02;;;22.40;39.50;;;;;;5032539;28;20491;-48
2020/12/20 09:56:15;;;;;;;2.63;0.80;;;22.50;39.60;;;;;;5034143;28;20436;-48
2020/12/20 09:58:42;;;;;;;2.40;0.90;;;22.50;39.50;;;;;;5033703;28;20171;-47
2020/12/20 10:01:18;;;;;;;3.13;1.00;;;22.60;39.60;;;;;;5033561;28;20033;-48
2020/12/20 10:03:44;;;;;;;3.38;1.33;;;22.60;39.60;;;;;;5033050;28;20458;-55
2020/12/20 10:06:10;;;;;;;5.15;1.27;;;22.70;39.70;;;;;;5042795;28;20121;-55
2020/12/20 10:08:37;;;;;;;3.10;1.10;;;22.70;39.50;;;;;;5032755;28;20107;-52
2020/12/20 10:11:03;;;;;;;4.90;1.17;;;22.80;39.50;;;;;;5027674;28;20303;-58
2020/12/20 10:13:28;;;;;;;3.78;1.02;;;22.90;39.40;;;;;;5034330;28;20028;-54
2020/12/20 10:15:54;;;;;;;4.68;1.20;;;23.00;39.40;;;;;;5021340;28;20699;-57
2020/12/20 10:18:20;;;;;;;2.30;1.00;;;23.10;39.60;;;;;;5027775;28;20033;-55
2020/12/20 10:20:46;;;;;;;4.03;1.27;;;23.20;39.60;;;;;;5013600;28;20033;-60
2020/12/20 10:23:12;;;;;;;2.88;1.00;;;23.30;39.60;;;;;;5029934;28;20029;-57
2020/12/20 10:25:40;;;;;;;3.95;1.33;;;23.40;39.60;;;;;;5034850;28;20040;-53
2020/12/20 10:28:07;;;;;;;2.45;1.20;;;23.40;39.50;;;;;;5014033;28;20046;-58
2020/12/20 10:30:32;;;;;;;2.50;1.08;;;23.50;39.40;;;;;;5033727;28;20377;-54
2020/12/20 10:32:59;;;;;;;1.85;1.00;;;23.60;39.40;;;;;;5031247;28;20036;-60
2020/12/20 10:35:27;;;;;;;3.45;1.08;;;23.70;39.40;;;;;;5033822;28;20053;-59
2020/12/20 10:37:59;;;;;;;5.10;1.10;;;23.70;39.30;;;;;;5007712;28;20058;-56
2020/12/20 10:40:27;;;;;;;4.32;1.13;;;23.80;39.30;;;;;;5026910;28;20037;-55
2020/12/20 10:42:53;;;;;;;5.78;1.20;;;24.00;39.60;;;;;;5026696;28;20042;-56
2020/12/20 10:45:19;;;;;;;2.42;1.00;;;24.00;39.90;;;;;;5019387;28;20148;-58
2020/12/20 10:47:51;;;;;;;3.08;1.20;;;24.10;40.10;;;;;;5033519;28;20021;-49
2020/12/20 10:50:18;;;;;;;3.08;1.08;;;24.20;40.00;;;;;;5025643;28;20022;-53
2020/12/20 10:52:44;;;;;;;2.38;0.80;;;24.20;39.90;;;;;;5034059;28;20444;-53
2020/12/20 10:55:10;;;;;;;3.15;1.00;;;24.30;39.70;;;;;;5037909;28;20034;-54
2020/12/20 10:57:35;;;;;;;2.33;1.20;;;24.40;39.50;;;;;;5034259;28;20038;-54
2020/12/20 11:00:04;;;;;;;2.45;1.08;;;24.60;39.30;;;;;;5034424;28;20040;-55
2020/12/20 11:02:29;;;;;;;3.70;1.30;;;24.60;39.20;;;;;;5043302;28;20029;-60
2020/12/20 11:04:56;;;;;;;3.45;1.08;;;24.70;39.10;;;;;;4983272;28;20331;-56
2020/12/20 11:07:25;;;;;;;3.75;0.88;;;24.70;39.00;;;;;;5030487;28;20030;-51
2020/12/20 11:09:52;;;;;;;1.98;1.00;;;24.80;39.10;;;;;;5000631;28;20487;-56
2020/12/20 11:12:18;;;;;;;2.33;1.10;;;24.90;39.20;;;;;;5022849;28;20025;-53
2020/12/20 11:14:45;;;;;;;4.40;1.08;;;25.00;39.20;;;;;;5033435;28;20468;-58
2020/12/20 11:17:12;;;;;;;1.85;1.00;;;25.00;39.20;;;;;;5028938;28;20042;-59
2020/12/20 11:19:40;;;;;;;2.53;0.93;;;25.00;39.20;;;;;;5033035;28;20064;-52
2020/12/20 11:22:08;;;;;;;3.92;1.50;;;25.10;39.10;;;;;;5039506;28;20025;-53
2020/12/20 11:24:35;;;;;;;2.67;1.00;;;25.20;39.10;;;;;;5052909;28;20056;-51
2020/12/20 11:27:05;;;;;;;1.77;0.80;;;25.20;39.10;;;;;;5052845;28;20029;-52
2020/12/20 11:29:32;;;;;;;2.25;0.82;;;25.30;39.00;;;;;;5045300;28;20052;-56
2020/12/20 11:31:59;;;;;;;3.05;1.10;;;25.30;39.00;;;;;;5027365;28;20021;-55
2020/12/20 11:34:25;;;;;;;1.75;0.95;;;25.30;38.90;;;;;;5028903;28;20025;-56
2020/12/20 11:36:52;;;;;;;3.53;1.25;;;25.30;38.80;;;;;;5028839;28;20056;-53
2020/12/20 11:39:22;;;;;;;2.05;0.80;;;25.30;38.60;;;;;;5022513;28;20022;-57
2020/12/20 11:41:49;;;;;;;3.80;1.10;;;25.30;38.50;;;;;;5019345;28;20028;-56
2020/12/20 11:44:16;;;;;;;2.15;1.08;;;25.30;38.40;;;;;;5023024;28;20482;-56
2020/12/20 11:46:42;;;;;;;2.97;1.35;;;25.30;38.30;;;;;;5026635;28;20098;-58
2020/12/20 11:49:08;;;;;;;3.38;0.93;;;25.30;38.20;;;;;;5025156;28;20037;-55
2020/12/20 11:51:34;;;;;;;1.83;0.93;;;25.30;38.20;;;;;;5006922;28;20029;-53
2020/12/20 11:54:00;;;;;;;1.20;0.88;;;25.30;38.10;;;;;;5027222;28;20029;-57
2020/12/20 11:56:27;;;;;;;2.45;1.05;;;25.20;38.00;;;;;;5023121;28;20045;-56
2020/12/20 11:58:52;;;;;;;2.10;0.80;;;25.30;38.00;;;;;;5024637;28;20074;-58
2020/12/20 12:01:23;;;;;;;1.83;0.95;;;25.30;37.90;;;;;;5022255;28;20061;-58
2020/12/20 12:03:49;;;;;;;2.60;0.95;;;25.30;37.90;;;;;;5027941;28;20030;-53
2020/12/20 12:06:15;;;;;;;1.95;0.88;;;25.20;37.80;;;;;;5029065;28;20453;-54
2020/12/20 12:08:44;;;;;;;1.00;0.75;;;25.20;37.80;;;;;;4995772;28;614256;-59
2020/12/20 12:11:10;;;;;;;2.80;1.05;;;25.20;37.70;;;;;;5008902;28;20425;-54
2020/12/20 12:13:35;;;;;;;2.97;1.05;;;25.20;37.60;;;;;;5006350;28;20023;-57
2020/12/20 12:16:02;;;;;;;2.22;1.05;;;25.20;37.60;;;;;;5007225;28;20038;-55
2020/12/20 12:18:28;;;;;;;3.47;0.90;;;25.20;37.60;;;;;;5005349;28;20036;-57
2020/12/20 12:20:54;;;;;;;2.70;1.10;;;25.20;37.50;;;;;;5007130;28;20026;-55
2020/12/20 12:23:20;;;;;;;3.35;1.10;;;25.20;37.50;;;;;;5004485;28;20105;-54
2020/12/20 12:25:45;;;;;;;5.13;1.33;;;25.20;37.70;;;;;;5005248;28;20107;-53
2020/12/20 12:28:11;;;;;;;4.13;1.17;;;25.20;37.80;;;;;;5004680;28;20038;-54
2020/12/20 12:30:37;;;;;;;2.95;1.00;;;25.20;37.80;;;;;;5006063;28;20044;-54
2020/12/20 12:33:03;;;;;;;4.43;1.42;;;25.20;37.70;;;;;;5003473;28;20027;-53
2020/12/20 12:35:29;;;;;;;2.40;1.10;;;25.20;37.60;;;;;;5005035;28;20137;-52
2020/12/20 12:37:54;;;;;;;2.97;1.15;;;25.20;37.60;;;;;;5006666;28;20045;-52
2020/12/20 12:40:20;;;;;;;3.55;1.20;;;25.10;37.50;;;;;;5008151;28;20120;-52
2020/12/20 12:42:46;;;;;;;2.05;0.90;;;25.10;37.40;;;;;;5007653;28;20102;-54
2020/12/20 12:45:14;;;;;;;5.80;1.30;;;25.10;37.30;;;;;;5004853;28;20068;-53
2020/12/20 12:47:40;;;;;;;2.85;0.95;;;25.10;37.30;;;;;;5004531;28;20449;-50
2020/12/20 12:50:06;;;;;;;2.80;1.00;;;25.10;37.20;;;;;;5005115;28;20061;-49
2020/12/20 12:52:31;;;;;;;2.42;1.02;;;25.10;37.20;;;;;;5006320;28;20030;-53
2020/12/20 12:54:58;;;;;;;4.53;1.05;;;25.00;37.10;;;;;;5005184;28;20478;-52
2020/12/20 12:57:23;;;;;;;3.78;1.17;;;25.00;37.10;;;;;;5010085;28;20052;-54
2020/12/20 12:59:49;;;;;;;2.47;0.93;;;25.00;37.00;;;;;;5003611;28;20110;-53